Time;durP1;ratioP1;P1;durP2;ratioP2;P2;SDS_P1;SDS_P2;PMS_P1;PMS_P2;Temp;Humidity;BMP_temperature;BMP_pressure;BME280_temperature;BME280_humidity;BME280_pressure;Samples;Min_cycle;Max_cycle;Signal;HPM_P1;HPM_P2
2022/07/11 00:02:05;;;;;;;5.35;2.45;;;15.00;89.10;;;;;;5051730;28;20115;-45
2022/07/11 00:04:32;;;;;;;3.78;2.35;;;15.00;89.10;;;;;;5051855;28;20056;-44
2022/07/11 00:06:59;;;;;;;5.90;1.90;;;14.90;89.10;;;;;;5069310;28;20032;-44
2022/07/11 00:09:30;;;;;;;6.40;1.88;;;14.90;89.20;;;;;;5069219;28;20111;-43
2022/07/11 00:11:55;;;;;;;8.02;2.97;;;14.90;89.30;;;;;;5051352;28;20111;-43
2022/07/11 00:14:24;;;;;;;4.03;2.35;;;14.90;89.30;;;;;;5051659;28;20124;-43
2022/07/11 00:16:53;;;;;;;5.57;2.65;;;14.90;89.30;;;;;;5068912;28;20036;-42
2022/07/11 00:19:20;;;;;;;4.27;2.00;;;15.00;89.40;;;;;;5069232;28;20438;-43
2022/07/11 00:21:49;;;;;;;4.13;2.50;;;15.00;89.50;;;;;;5031392;28;20276;-42
2022/07/11 00:24:17;;;;;;;4.22;2.40;;;14.90;89.50;;;;;;5049076;28;20044;-43
2022/07/11 00:26:43;;;;;;;6.35;2.53;;;14.90;89.50;;;;;;5065654;28;20106;-43
2022/07/11 00:29:09;;;;;;;8.27;2.55;;;14.90;89.60;;;;;;5068732;28;20033;-43
2022/07/11 00:31:34;;;;;;;6.13;2.22;;;14.90;89.50;;;;;;5068862;28;20369;-43
2022/07/11 00:34:00;;;;;;;5.50;2.03;;;14.90;89.60;;;;;;5051385;28;20032;-43
2022/07/11 00:36:26;;;;;;;4.93;2.17;;;14.90;89.60;;;;;;5069177;28;20101;-42
2022/07/11 00:38:51;;;;;;;7.38;2.50;;;14.90;89.50;;;;;;5068553;28;20060;-42
2022/07/11 00:41:18;;;;;;;3.05;2.15;;;14.90;89.50;;;;;;5069158;28;20039;-42
2022/07/11 00:43:57;;;;;;;4.85;2.30;;;14.90;89.50;;;;;;5067698;28;20040;-43
2022/07/11 00:46:24;;;;;;;4.25;2.35;;;14.90;89.50;;;;;;5068304;28;20032;-44
2022/07/11 00:48:50;;;;;;;4.43;2.70;;;14.90;89.40;;;;;;5050320;28;20370;-43
2022/07/11 00:51:20;;;;;;;9.43;2.22;;;14.90;89.40;;;;;;5067316;28;20060;-43
2022/07/11 00:53:51;;;;;;;7.50;1.92;;;14.90;89.50;;;;;;5068097;28;20043;-42
2022/07/11 00:56:20;;;;;;;4.63;2.05;;;14.90;89.50;;;;;;5053737;28;20032;-44
2022/07/11 00:58:49;;;;;;;8.25;2.92;;;14.90;89.50;;;;;;5074827;28;20357;-44
2022/07/11 01:01:15;;;;;;;5.32;1.60;;;15.00;89.50;;;;;;5074908;28;20032;-46
2022/07/11 01:03:41;;;;;;;3.60;1.65;;;14.90;89.60;;;;;;5074666;28;20480;-44
2022/07/11 01:06:08;;;;;;;5.00;1.92;;;15.00;89.60;;;;;;5061783;28;20028;-43
2022/07/11 01:08:38;;;;;;;5.30;2.35;;;15.00;89.60;;;;;;5074690;28;20027;-43
2022/07/11 01:11:12;;;;;;;5.50;3.20;;;15.00;89.60;;;;;;5074622;28;20457;-43
2022/07/11 01:13:40;;;;;;;4.50;2.45;;;15.00;89.60;;;;;;5075053;28;20047;-42
2022/07/11 01:16:12;;;;;;;4.57;2.53;;;15.00;89.70;;;;;;5073203;28;20413;-44
2022/07/11 01:18:45;;;;;;;3.88;2.20;;;14.90;89.70;;;;;;5075548;28;20021;-43
2022/07/11 01:21:23;;;;;;;4.82;2.28;;;15.00;89.70;;;;;;5057196;28;20035;-43
2022/07/11 01:23:49;;;;;;;6.25;2.45;;;15.00;89.70;;;;;;5075070;28;20056;-43
2022/07/11 01:26:16;;;;;;;6.50;2.28;;;14.90;89.70;;;;;;5075085;28;20024;-44
2022/07/11 01:28:43;;;;;;;5.05;2.38;;;14.90;89.70;;;;;;5057709;28;20032;-43
2022/07/11 01:31:08;;;;;;;5.53;2.70;;;14.90;89.70;;;;;;5074790;28;20039;-42
2022/07/11 01:33:34;;;;;;;5.15;2.63;;;14.90;89.70;;;;;;5074773;28;20033;-43
2022/07/11 01:36:03;;;;;;;4.80;2.10;;;14.90;89.80;;;;;;5057512;28;20052;-42
2022/07/11 01:38:29;;;;;;;5.07;2.63;;;14.90;89.80;;;;;;5057125;28;20040;-42
2022/07/11 01:40:55;;;;;;;5.32;2.10;;;14.90;89.90;;;;;;5075267;28;20025;-43
2022/07/11 01:43:21;;;;;;;5.95;2.40;;;14.80;90.00;;;;;;5073855;28;20633;-46
2022/07/11 01:45:51;;;;;;;7.15;3.22;;;14.80;90.00;;;;;;5075516;28;20032;-43
2022/07/11 01:48:16;;;;;;;3.15;1.52;;;14.80;90.10;;;;;;5074797;28;20032;-43
2022/07/11 01:50:42;;;;;;;6.07;1.90;;;14.90;90.10;;;;;;5075133;28;20028;-42
2022/07/11 01:53:07;;;;;;;5.22;1.98;;;14.90;90.10;;;;;;5074338;28;20048;-42
2022/07/11 01:55:33;;;;;;;8.40;1.70;;;14.90;90.00;;;;;;5074697;28;20112;-45
2022/07/11 01:57:59;;;;;;;5.97;2.42;;;14.90;90.10;;;;;;5074953;28;20025;-45
2022/07/11 02:00:24;;;;;;;5.78;1.73;;;14.90;89.90;;;;;;5057056;28;20392;-42
2022/07/11 02:02:50;;;;;;;3.38;1.73;;;14.90;89.90;;;;;;5074954;28;20058;-43
2022/07/11 02:05:16;;;;;;;5.93;2.22;;;14.90;90.00;;;;;;5074817;28;20036;-42
2022/07/11 02:10:29;;;;;;;4.75;1.90;;;14.90;90.00;;;;;;5071843;28;20036;-43
2022/07/11 02:12:59;;;;;;;5.28;2.20;;;14.90;90.00;;;;;;5071773;28;20400;-43
2022/07/11 02:15:25;;;;;;;5.03;1.85;;;14.90;89.90;;;;;;5071425;28;20108;-45
2022/07/11 02:17:51;;;;;;;4.75;2.03;;;14.90;89.90;;;;;;5054346;28;20442;-42
2022/07/11 02:20:21;;;;;;;4.88;1.88;;;14.90;89.90;;;;;;5053870;28;20027;-43
2022/07/11 02:22:51;;;;;;;6.15;2.38;;;14.90;89.90;;;;;;5071444;28;20074;-43
2022/07/11 02:25:21;;;;;;;4.20;2.13;;;14.90;89.90;;;;;;5070824;28;20017;-44
2022/07/11 02:27:46;;;;;;;4.13;2.00;;;14.80;90.00;;;;;;5053775;28;20115;-44
2022/07/11 02:30:12;;;;;;;6.80;2.38;;;14.80;90.10;;;;;;5053510;28;20140;-43
2022/07/11 02:32:38;;;;;;;4.80;2.10;;;14.80;90.30;;;;;;5070984;28;20025;-44
2022/07/11 02:35:04;;;;;;;4.40;2.00;;;14.80;90.50;;;;;;5053343;28;20090;-45
2022/07/11 02:37:30;;;;;;;7.82;1.77;;;14.80;90.70;;;;;;5052720;28;20060;-45
2022/07/11 02:39:58;;;;;;;3.30;1.88;;;14.70;90.80;;;;;;5070626;28;20035;-45
2022/07/11 02:42:26;;;;;;;6.50;1.50;;;14.70;90.90;;;;;;5069631;28;20107;-45
2022/07/11 02:44:52;;;;;;;3.38;1.15;;;14.60;91.00;;;;;;5070395;28;20469;-46
2022/07/11 02:47:17;;;;;;;2.58;1.20;;;14.60;91.00;;;;;;5052543;28;20065;-46
2022/07/11 02:49:43;;;;;;;4.35;1.67;;;14.60;91.10;;;;;;5057332;28;20028;-47
2022/07/11 02:52:09;;;;;;;4.15;1.50;;;14.50;91.10;;;;;;5070141;28;20086;-45
2022/07/11 02:54:34;;;;;;;5.25;1.42;;;14.60;91.20;;;;;;5058428;28;20056;-45
2022/07/11 02:57:01;;;;;;;5.97;1.83;;;14.50;91.20;;;;;;5070986;28;20021;-46
2022/07/11 02:59:30;;;;;;;3.50;1.13;;;14.50;91.30;;;;;;5070642;28;20020;-45
2022/07/11 03:01:55;;;;;;;2.38;1.20;;;14.60;91.30;;;;;;5053014;28;20025;-45
2022/07/11 03:04:21;;;;;;;7.22;1.42;;;14.50;91.30;;;;;;5053266;28;20150;-45
2022/07/11 03:06:47;;;;;;;3.95;1.13;;;14.50;91.30;;;;;;5064165;28;20029;-45
2022/07/11 03:09:12;;;;;;;4.18;1.38;;;14.50;91.30;;;;;;5069440;28;20029;-46
2022/07/11 03:11:38;;;;;;;2.65;1.20;;;14.50;91.30;;;;;;5070722;28;20788;-45
2022/07/11 03:14:04;;;;;;;2.35;0.80;;;14.50;91.30;;;;;;5069403;28;20787;-45
2022/07/11 03:16:30;;;;;;;2.17;1.02;;;14.50;91.30;;;;;;5070516;28;20017;-46
2022/07/11 03:18:59;;;;;;;3.97;1.30;;;14.60;91.30;;;;;;5069838;28;20086;-46
2022/07/11 03:21:25;;;;;;;2.45;1.13;;;14.50;91.30;;;;;;5070441;28;20039;-45
2022/07/11 03:23:53;;;;;;;3.90;1.10;;;14.60;91.20;;;;;;5052261;28;20468;-45
2022/07/11 03:26:21;;;;;;;3.03;1.10;;;14.50;91.20;;;;;;5070015;28;20032;-45
2022/07/11 03:28:47;;;;;;;4.40;1.58;;;14.50;91.20;;;;;;5051742;28;20028;-46
2022/07/11 03:31:12;;;;;;;4.57;1.17;;;14.50;91.30;;;;;;5069796;28;20391;-48
2022/07/11 03:33:38;;;;;;;3.55;1.60;;;14.50;91.30;;;;;;5070323;28;20033;-48
2022/07/11 03:36:04;;;;;;;3.45;1.35;;;14.50;91.40;;;;;;5052329;28;20025;-47
2022/07/11 03:38:30;;;;;;;2.55;1.38;;;14.50;91.50;;;;;;5070040;28;20051;-47
2022/07/11 03:40:58;;;;;;;3.03;1.15;;;14.50;91.50;;;;;;5069380;28;20021;-46
2022/07/11 03:43:23;;;;;;;2.40;1.00;;;14.50;91.60;;;;;;5068670;28;20042;-46
2022/07/11 03:45:49;;;;;;;2.85;1.10;;;14.50;91.70;;;;;;5051702;28;20115;-46
2022/07/11 03:48:17;;;;;;;1.90;0.88;;;14.50;91.70;;;;;;5069560;28;20349;-46
2022/07/11 03:50:45;;;;;;;2.63;1.10;;;14.50;91.70;;;;;;5069460;28;20037;-47
2022/07/11 03:53:10;;;;;;;2.60;1.40;;;14.50;91.80;;;;;;5069357;28;20043;-48
2022/07/11 03:55:37;;;;;;;4.75;1.48;;;14.50;91.80;;;;;;5068996;28;20032;-46
2022/07/11 03:58:03;;;;;;;3.70;1.38;;;14.50;91.80;;;;;;5069429;28;20017;-46
2022/07/11 04:00:31;;;;;;;3.75;1.33;;;14.50;91.80;;;;;;5069258;28;20111;-47
2022/07/11 04:02:57;;;;;;;4.70;1.30;;;14.60;91.80;;;;;;5068157;28;20054;-46
2022/07/11 04:05:23;;;;;;;3.90;1.27;;;14.50;91.80;;;;;;5069473;28;20025;-48
2022/07/11 04:07:50;;;;;;;6.13;1.17;;;14.60;91.80;;;;;;5051547;28;20028;-46
2022/07/11 04:10:18;;;;;;;3.50;1.40;;;14.60;91.80;;;;;;5051666;28;20534;-47
2022/07/11 04:12:47;;;;;;;2.05;1.00;;;14.60;91.70;;;;;;5069341;28;20465;-46
2022/07/11 04:15:15;;;;;;;3.93;1.00;;;14.70;91.70;;;;;;5068938;28;20791;-46
2022/07/11 04:17:43;;;;;;;2.47;0.90;;;14.70;91.70;;;;;;5069156;28;20028;-46
2022/07/11 04:20:12;;;;;;;2.60;0.80;;;14.70;91.50;;;;;;5051638;28;20714;-46
2022/07/11 04:22:38;;;;;;;4.38;0.90;;;14.80;91.40;;;;;;5069055;28;20029;-47
2022/07/11 04:25:04;;;;;;;3.00;1.25;;;14.90;91.40;;;;;;5068979;28;20021;-45
2022/07/11 04:27:30;;;;;;;4.07;1.20;;;14.90;91.30;;;;;;5068551;28;20065;-46
2022/07/11 04:29:55;;;;;;;2.63;1.23;;;15.00;91.20;;;;;;5068619;28;20039;-46
2022/07/11 04:32:21;;;;;;;3.38;1.00;;;15.00;91.10;;;;;;5068409;28;20036;-44
2022/07/11 04:34:46;;;;;;;2.00;0.98;;;15.00;91.00;;;;;;5068794;28;20430;-45
2022/07/11 04:37:12;;;;;;;3.83;1.15;;;15.00;90.90;;;;;;5050977;28;20528;-44
2022/07/11 04:39:40;;;;;;;3.75;1.10;;;15.00;90.90;;;;;;5069098;28;20533;-45
2022/07/11 04:42:09;;;;;;;2.70;1.35;;;15.00;90.90;;;;;;5068255;28;20028;-44
2022/07/11 04:44:34;;;;;;;4.97;1.52;;;15.00;90.90;;;;;;5068561;28;20484;-44
2022/07/11 04:47:02;;;;;;;3.05;1.40;;;15.10;91.00;;;;;;5050671;28;20037;-44
2022/07/11 04:49:29;;;;;;;3.13;1.67;;;15.10;91.00;;;;;;5068699;28;20096;-45
2022/07/11 04:51:55;;;;;;;3.28;1.27;;;15.10;91.00;;;;;;5051435;28;20024;-44
2022/07/11 04:54:24;;;;;;;4.55;0.95;;;15.10;90.90;;;;;;5068721;28;20078;-45
2022/07/11 04:56:50;;;;;;;1.90;0.70;;;15.00;90.90;;;;;;5067981;28;20029;-46
2022/07/11 04:59:18;;;;;;;1.95;0.80;;;14.90;91.00;;;;;;5067721;28;20449;-46
2022/07/11 05:01:44;;;;;;;1.75;0.57;;;14.90;91.00;;;;;;5068303;28;20039;-46
2022/07/11 05:04:10;;;;;;;1.88;0.40;;;14.90;91.00;;;;;;5068915;28;20016;-47
2022/07/11 05:06:35;;;;;;;2.95;0.68;;;14.90;91.10;;;;;;5051242;28;20070;-47
2022/07/11 05:09:02;;;;;;;2.15;0.70;;;14.90;91.10;;;;;;5068384;28;20434;-47
2022/07/11 05:11:27;;;;;;;1.95;0.50;;;14.90;91.10;;;;;;5050409;28;20020;-49
2022/07/11 05:13:53;;;;;;;1.63;0.63;;;14.90;91.20;;;;;;5049381;28;20040;-46
2022/07/11 05:16:19;;;;;;;2.55;0.88;;;14.90;91.10;;;;;;5068101;28;20008;-47
2022/07/11 05:18:44;;;;;;;1.30;0.55;;;14.80;91.10;;;;;;5067375;28;20077;-46
2022/07/11 05:21:10;;;;;;;1.00;0.40;;;14.90;91.20;;;;;;5067790;28;20021;-46
2022/07/11 05:23:36;;;;;;;1.92;0.88;;;14.90;91.30;;;;;;5050755;28;20024;-46
2022/07/11 05:26:04;;;;;;;3.00;0.75;;;15.00;91.30;;;;;;5067265;28;20032;-46
2022/07/11 05:28:29;;;;;;;2.50;0.80;;;15.00;91.30;;;;;;5063194;28;20357;-46
2022/07/11 05:30:57;;;;;;;1.63;0.52;;;15.10;91.30;;;;;;5067056;28;20036;-45
2022/07/11 05:33:23;;;;;;;1.80;0.60;;;15.20;91.40;;;;;;5049689;28;20075;-45
2022/07/11 05:35:51;;;;;;;4.38;0.88;;;15.40;91.30;;;;;;5068185;28;20053;-44
2022/07/11 05:38:19;;;;;;;3.75;0.88;;;15.40;91.10;;;;;;5067646;28;20450;-45
2022/07/11 05:40:47;;;;;;;1.90;0.80;;;15.50;91.00;;;;;;5067050;28;20564;-44
2022/07/11 05:43:13;;;;;;;4.13;1.15;;;15.50;90.90;;;;;;5065179;28;20039;-45
2022/07/11 05:45:39;;;;;;;1.75;0.70;;;15.50;90.70;;;;;;5070941;28;20043;-44
2022/07/11 05:48:05;;;;;;;3.70;0.95;;;15.50;90.70;;;;;;5070649;28;20029;-46
2022/07/11 05:50:30;;;;;;;3.95;0.75;;;15.50;90.60;;;;;;5070780;28;20048;-43
2022/07/11 05:52:57;;;;;;;3.65;0.98;;;15.50;90.70;;;;;;5052342;28;20433;-43
2022/07/11 05:55:23;;;;;;;2.80;0.82;;;15.60;90.70;;;;;;5069870;28;20024;-44
2022/07/11 05:57:49;;;;;;;2.53;0.77;;;15.70;90.70;;;;;;5070114;28;20442;-45
2022/07/11 06:00:15;;;;;;;3.88;0.80;;;15.70;90.50;;;;;;5068305;28;20117;-43
2022/07/11 06:02:44;;;;;;;2.22;0.70;;;15.70;90.30;;;;;;5050053;28;20020;-43
2022/07/11 06:05:11;;;;;;;2.50;0.80;;;15.80;90.30;;;;;;5069522;28;20028;-44
2022/07/11 06:10:27;;;;;;;3.10;0.75;;;15.80;89.80;;;;;;5055891;28;20028;-43
2022/07/11 06:12:56;;;;;;;2.72;0.82;;;15.80;89.80;;;;;;5069802;28;20039;-43
2022/07/11 06:15:21;;;;;;;4.78;1.08;;;15.80;89.60;;;;;;5053479;28;20031;-43
2022/07/11 06:17:50;;;;;;;2.25;0.65;;;15.90;89.40;;;;;;5070629;28;20024;-43
2022/07/11 06:20:15;;;;;;;1.45;0.52;;;15.90;89.20;;;;;;5068354;28;20016;-43
2022/07/11 06:22:41;;;;;;;1.60;0.60;;;15.90;89.20;;;;;;5053274;28;20365;-43
2022/07/11 06:25:08;;;;;;;0.70;0.40;;;15.90;89.30;;;;;;5053631;28;20041;-43
2022/07/11 06:27:35;;;;;;;2.15;0.55;;;16.00;89.30;;;;;;5071248;28;20017;-43
2022/07/11 06:30:00;;;;;;;2.42;0.50;;;16.10;89.30;;;;;;5052969;28;20028;-43
2022/07/11 06:32:31;;;;;;;1.98;0.77;;;16.10;89.20;;;;;;5060788;28;20044;-43
2022/07/11 06:34:56;;;;;;;0.98;0.40;;;16.10;89.00;;;;;;5055675;28;20457;-44
2022/07/11 06:37:22;;;;;;;3.42;0.60;;;16.20;88.80;;;;;;5052687;28;20047;-43
2022/07/11 06:39:50;;;;;;;2.55;0.75;;;16.10;88.80;;;;;;5052877;28;20752;-43
2022/07/11 06:42:20;;;;;;;5.63;1.45;;;16.00;88.80;;;;;;5083529;28;20028;-44
2022/07/11 06:44:47;;;;;;;2.35;0.60;;;15.90;89.00;;;;;;5052505;28;20052;-48
2022/07/11 06:47:13;;;;;;;3.22;0.95;;;15.90;89.40;;;;;;5052209;28;20215;-52
2022/07/11 06:49:40;;;;;;;1.83;0.80;;;15.90;89.60;;;;;;5057519;28;20024;-51
2022/07/11 06:52:06;;;;;;;6.00;1.08;;;15.90;90.10;;;;;;5069480;28;20029;-50
2022/07/11 06:54:32;;;;;;;2.20;0.82;;;15.80;90.20;;;;;;5052055;28;20032;-51
2022/07/11 06:56:57;;;;;;;3.70;0.80;;;15.80;90.50;;;;;;5045935;28;20454;-52
2022/07/11 06:59:23;;;;;;;3.85;1.08;;;15.90;90.60;;;;;;5067335;28;20450;-50
2022/07/11 07:01:49;;;;;;;2.42;1.35;;;16.00;90.60;;;;;;5067722;28;20045;-48
2022/07/11 07:04:15;;;;;;;5.00;1.15;;;16.10;90.80;;;;;;5063896;28;20064;-49
2022/07/11 07:06:40;;;;;;;2.72;1.00;;;16.20;90.70;;;;;;5063970;28;20048;-47
2022/07/11 07:09:06;;;;;;;3.83;1.10;;;16.30;90.60;;;;;;5067106;28;20400;-48
2022/07/11 07:11:31;;;;;;;5.15;1.02;;;16.40;90.50;;;;;;5049754;28;20417;-48
2022/07/11 07:13:57;;;;;;;2.22;0.47;;;16.40;90.10;;;;;;5033014;28;20024;-49
2022/07/11 07:16:25;;;;;;;3.88;0.85;;;16.40;89.70;;;;;;5049870;28;20024;-53
2022/07/11 07:18:52;;;;;;;1.80;0.60;;;16.20;89.50;;;;;;5067241;28;20453;-55
2022/07/11 07:21:21;;;;;;;2.20;0.50;;;16.10;89.90;;;;;;5067267;28;20052;-52
2022/07/11 07:23:49;;;;;;;2.75;0.60;;;16.10;90.20;;;;;;5067157;28;20116;-49
2022/07/11 07:26:15;;;;;;;2.25;0.60;;;16.10;90.60;;;;;;5066983;28;20068;-48
2022/07/11 07:28:41;;;;;;;2.00;0.43;;;16.10;90.60;;;;;;5066550;28;20445;-50
2022/07/11 07:31:06;;;;;;;2.13;0.75;;;16.10;90.60;;;;;;5064509;28;20052;-52
2022/07/11 07:33:32;;;;;;;1.00;0.52;;;16.10;90.50;;;;;;5061742;28;20151;-49
2022/07/11 07:35:58;;;;;;;0.85;0.30;;;16.10;90.60;;;;;;5064840;28;20335;-48
2022/07/11 07:38:23;;;;;;;0.98;0.52;;;16.20;90.70;;;;;;5048877;28;20051;-49
2022/07/11 07:40:51;;;;;;;0.93;0.20;;;16.30;90.70;;;;;;5066005;28;20017;-47
2022/07/11 07:43:17;;;;;;;1.13;0.30;;;16.40;90.70;;;;;;5066221;28;20048;-47
2022/07/11 07:45:42;;;;;;;1.63;0.47;;;16.70;90.50;;;;;;5048637;28;20097;-46
2022/07/11 07:48:08;;;;;;;0.93;0.30;;;17.00;90.60;;;;;;5066842;28;20029;-47
2022/07/11 07:50:34;;;;;;;2.15;0.47;;;17.30;90.10;;;;;;5065949;28;20032;-46
2022/07/11 07:52:59;;;;;;;1.55;0.50;;;17.50;89.30;;;;;;5032062;28;20032;-45
2022/07/11 07:55:25;;;;;;;1.27;0.40;;;17.60;88.40;;;;;;5065915;28;20028;-44
2022/07/11 07:57:51;;;;;;;1.35;0.50;;;17.90;88.80;;;;;;5045910;28;20025;-43
2022/07/11 08:03:10;;;;;;;1.15;0.30;;;17.70;87.20;;;;;;5064333;28;20082;-43
2022/07/11 08:05:36;;;;;;;1.48;0.40;;;17.60;87.60;;;;;;5028645;28;20036;-43
2022/07/11 08:08:03;;;;;;;1.98;0.50;;;18.10;87.40;;;;;;5066098;28;20078;-44
2022/07/11 08:10:30;;;;;;;3.17;0.52;;;18.60;86.60;;;;;;5066192;28;20043;-44
2022/07/11 08:12:57;;;;;;;1.52;0.88;;;19.00;86.50;;;;;;5047800;28;20039;-44
2022/07/11 08:15:24;;;;;;;2.75;0.50;;;19.40;84.40;;;;;;5066366;28;20060;-45
2022/07/11 08:17:52;;;;;;;1.88;0.50;;;18.90;83.60;;;;;;5065379;28;20070;-45
2022/07/11 08:20:19;;;;;;;1.77;0.40;;;18.50;84.90;;;;;;5047385;28;20020;-45
2022/07/11 08:22:46;;;;;;;0.93;0.60;;;18.50;86.00;;;;;;5065446;28;20037;-45
2022/07/11 08:25:11;;;;;;;2.05;0.40;;;18.40;85.00;;;;;;5047272;28;20382;-48
2022/07/11 08:27:39;;;;;;;1.20;0.30;;;18.40;85.00;;;;;;5047151;28;20036;-47
2022/07/11 08:30:07;;;;;;;0.90;0.20;;;18.30;85.10;;;;;;5065249;28;20016;-46
2022/07/11 08:32:37;;;;;;;0.95;0.35;;;18.10;84.70;;;;;;5064175;28;20071;-46
2022/07/11 08:35:03;;;;;;;1.13;0.43;;;18.20;85.20;;;;;;5079527;28;20035;-46
2022/07/11 08:37:30;;;;;;;1.50;0.35;;;18.30;85.30;;;;;;5064932;28;20028;-46
2022/07/11 08:39:57;;;;;;;0.80;0.30;;;18.30;84.40;;;;;;5065230;28;20024;-46
2022/07/11 08:42:27;;;;;;;0.55;0.30;;;18.40;84.50;;;;;;5063109;28;20045;-45
2022/07/11 08:44:55;;;;;;;0.82;0.50;;;18.50;84.00;;;;;;5065880;28;20032;-47
2022/07/11 08:47:26;;;;;;;0.57;0.20;;;19.00;82.40;;;;;;5066297;28;20454;-45
2022/07/11 08:49:53;;;;;;;3.45;0.57;;;19.00;82.30;;;;;;5066533;28;20032;-46
2022/07/11 08:52:22;;;;;;;2.50;0.45;;;19.10;81.80;;;;;;5065630;28;20040;-46
2022/07/11 08:54:47;;;;;;;2.45;0.75;;;19.00;80.80;;;;;;5067322;28;20404;-47
2022/07/11 08:57:15;;;;;;;1.67;0.30;;;18.90;81.30;;;;;;5064977;28;20025;-46
2022/07/11 08:59:48;;;;;;;2.40;0.98;;;19.10;80.40;;;;;;5050378;28;20091;-46
2022/07/11 09:02:19;;;;;;;2.17;0.52;;;19.30;81.10;;;;;;5047168;28;20113;-47
2022/07/11 09:04:46;;;;;;;4.72;0.90;;;19.40;79.50;;;;;;5064371;28;20033;-47
2022/07/11 09:07:13;;;;;;;2.72;0.60;;;19.60;79.20;;;;;;5063538;28;20054;-46
2022/07/11 09:09:41;;;;;;;1.52;0.80;;;19.50;79.90;;;;;;5046782;28;20036;-46
2022/07/11 09:12:19;;;;;;;1.95;0.50;;;19.30;79.90;;;;;;5064656;28;20120;-46
2022/07/11 09:14:47;;;;;;;2.30;0.52;;;19.30;80.70;;;;;;5047167;28;20032;-46
2022/07/11 09:17:15;;;;;;;1.95;0.35;;;19.10;79.20;;;;;;5066366;28;20052;-46
2022/07/11 09:19:45;;;;;;;1.58;0.32;;;19.30;80.10;;;;;;5050250;28;20020;-46
2022/07/11 09:25:19;;;;;;;1.80;0.30;;;19.60;77.30;;;;;;5069430;28;20104;-49
2022/07/11 09:27:45;;;;;;;2.42;0.57;;;19.50;78.10;;;;;;5068960;28;20130;-46
2022/07/11 09:30:29;;;;;;;2.63;0.60;;;19.40;79.80;;;;;;5069360;28;20111;-47
2022/07/11 09:33:03;;;;;;;1.80;0.47;;;19.30;78.50;;;;;;5050646;28;20039;-49
2022/07/11 09:35:42;;;;;;;2.50;0.50;;;19.50;79.30;;;;;;5068928;28;20024;-47
2022/07/11 09:38:11;;;;;;;0.80;0.30;;;19.70;77.90;;;;;;5069580;28;20071;-46
2022/07/11 09:40:44;;;;;;;2.17;0.70;;;19.50;77.70;;;;;;5068366;28;20056;-46
2022/07/11 09:43:23;;;;;;;3.05;0.60;;;19.30;78.90;;;;;;5068047;28;20067;-46
2022/07/11 09:45:50;;;;;;;2.08;0.80;;;19.00;80.20;;;;;;5068771;28;20033;-46
2022/07/11 09:48:19;;;;;;;1.45;0.95;;;18.90;80.90;;;;;;5068886;28;20138;-47
2022/07/11 09:51:00;;;;;;;2.08;0.60;;;18.90;82.30;;;;;;5068485;28;20037;-46
2022/07/11 09:53:27;;;;;;;1.23;0.40;;;18.70;80.60;;;;;;5068426;28;20029;-46
2022/07/11 09:55:54;;;;;;;1.83;0.60;;;18.80;81.00;;;;;;5069258;28;20064;-46
2022/07/11 09:58:29;;;;;;;0.85;0.38;;;18.90;81.20;;;;;;5068823;28;20032;-47
2022/07/11 10:00:56;;;;;;;1.08;0.43;;;19.30;80.20;;;;;;5068432;28;20460;-48
2022/07/11 10:03:25;;;;;;;1.02;0.40;;;20.00;79.90;;;;;;5068587;28;20059;-50
2022/07/11 10:05:52;;;;;;;1.30;0.55;;;20.50;75.70;;;;;;5068738;28;20036;-46
2022/07/11 10:08:19;;;;;;;1.95;0.47;;;20.50;76.30;;;;;;5068596;28;20036;-46
2022/07/11 10:10:45;;;;;;;1.05;0.60;;;20.20;76.00;;;;;;5068602;28;20112;-47
2022/07/11 10:13:12;;;;;;;2.17;0.60;;;20.00;76.70;;;;;;5032797;28;20135;-47
2022/07/11 10:15:44;;;;;;;0.60;0.40;;;20.10;77.50;;;;;;5050773;28;20050;-47
2022/07/11 10:18:52;;;;;;;3.80;0.68;;;20.00;75.50;;;;;;5067086;28;20024;-46
2022/07/11 10:21:30;;;;;;;1.90;0.60;;;19.90;76.00;;;;;;5040049;28;20090;-48
2022/07/11 10:24:24;;;;;;;1.80;0.75;;;19.90;76.40;;;;;;5046737;28;20409;-46
2022/07/11 10:27:17;;;;;;;1.65;0.63;;;19.70;77.70;;;;;;5068584;28;20025;-46
2022/07/11 10:29:53;;;;;;;2.15;0.90;;;19.80;77.60;;;;;;5067155;28;20048;-46
2022/07/11 10:32:22;;;;;;;1.95;0.50;;;19.80;76.50;;;;;;5050698;28;20052;-46
2022/07/11 10:35:07;;;;;;;1.80;0.73;;;19.60;77.00;;;;;;5067919;28;20338;-50
2022/07/11 10:37:48;;;;;;;2.15;0.70;;;19.40;77.20;;;;;;5049953;28;20043;-46
2022/07/11 10:40:15;;;;;;;1.23;0.88;;;19.40;77.70;;;;;;5063438;28;20793;-46
2022/07/11 10:42:42;;;;;;;1.50;0.60;;;19.60;75.90;;;;;;5067035;28;20056;-46
2022/07/11 10:45:12;;;;;;;1.67;0.80;;;20.00;74.60;;;;;;5049438;28;20056;-46
2022/07/11 10:47:45;;;;;;;1.60;0.88;;;20.00;75.80;;;;;;5065797;28;20016;-46
2022/07/11 10:50:38;;;;;;;2.00;0.68;;;20.10;76.00;;;;;;5067335;28;20036;-46
2022/07/11 10:53:13;;;;;;;3.95;1.05;;;19.60;75.90;;;;;;5070783;28;20032;-46
2022/07/11 10:56:01;;;;;;;2.92;0.80;;;19.40;77.20;;;;;;5050138;28;20020;-46
2022/07/11 10:58:32;;;;;;;2.13;0.90;;;19.30;78.00;;;;;;5049852;28;20047;-45
2022/07/11 11:01:16;;;;;;;2.97;1.05;;;19.40;77.30;;;;;;5067177;28;20016;-46
2022/07/11 11:03:44;;;;;;;3.47;1.00;;;19.60;76.80;;;;;;5067431;28;20591;-47
2022/07/11 11:06:12;;;;;;;2.53;0.70;;;19.90;75.20;;;;;;5067510;28;20503;-47
2022/07/11 11:08:56;;;;;;;1.77;0.80;;;19.80;75.40;;;;;;5067813;28;20068;-46
2022/07/11 11:11:25;;;;;;;1.27;0.60;;;19.80;76.90;;;;;;5068081;28;20067;-46
2022/07/11 11:14:20;;;;;;;1.33;0.50;;;19.90;77.30;;;;;;5067916;28;20032;-47
2022/07/11 11:16:47;;;;;;;2.22;0.68;;;19.90;74.70;;;;;;5067449;28;20374;-48
2022/07/11 11:19:50;;;;;;;2.45;0.88;;;19.70;76.00;;;;;;5066682;28;20043;-51
2022/07/11 11:22:21;;;;;;;2.00;0.88;;;19.90;76.30;;;;;;5066127;28;20044;-48
2022/07/11 11:24:50;;;;;;;1.75;0.50;;;20.30;75.80;;;;;;5066347;28;20044;-51
2022/07/11 11:27:27;;;;;;;4.43;1.43;;;20.20;74.80;;;;;;5048469;28;20036;-50
2022/07/11 11:29:55;;;;;;;4.93;1.13;;;19.90;75.50;;;;;;5066620;28;20603;-49
2022/07/11 11:32:30;;;;;;;2.20;1.00;;;19.70;76.20;;;;;;5066537;28;20036;-51
2022/07/11 11:34:57;;;;;;;2.13;1.00;;;19.70;77.40;;;;;;5047457;28;20017;-50
2022/07/11 11:37:24;;;;;;;2.33;1.02;;;19.70;75.50;;;;;;5067050;28;20025;-49
2022/07/11 11:39:59;;;;;;;1.85;0.95;;;19.80;76.40;;;;;;5049561;28;20039;-48
2022/07/11 11:42:24;;;;;;;2.17;1.45;;;20.20;76.40;;;;;;5048435;28;20053;-46
2022/07/11 11:45:04;;;;;;;3.00;1.45;;;20.10;75.10;;;;;;5064182;28;20074;-48
2022/07/11 11:47:30;;;;;;;2.50;1.27;;;20.00;74.10;;;;;;5046935;28;20032;-46
2022/07/11 11:49:57;;;;;;;1.73;0.82;;;19.90;76.20;;;;;;5066514;28;20064;-52
2022/07/11 11:52:28;;;;;;;2.33;0.90;;;19.80;75.30;;;;;;5066458;28;20032;-47
2022/07/11 11:54:57;;;;;;;6.70;0.90;;;19.60;76.10;;;;;;5066484;28;20036;-46
2022/07/11 11:57:27;;;;;;;4.07;1.33;;;19.60;76.20;;;;;;5066311;28;20032;-46
2022/07/11 11:59:54;;;;;;;3.35;1.45;;;19.60;77.40;;;;;;5066487;28;20427;-48
2022/07/11 12:02:30;;;;;;;2.78;1.05;;;19.60;77.50;;;;;;5066615;28;20473;-48
2022/07/11 12:04:58;;;;;;;2.47;1.65;;;19.70;77.00;;;;;;5064413;28;20121;-51
2022/07/11 12:07:29;;;;;;;2.65;1.33;;;19.90;76.70;;;;;;5066360;28;20036;-47
2022/07/11 12:09:59;;;;;;;2.22;1.30;;;19.90;75.00;;;;;;5066431;28;20032;-45
2022/07/11 12:12:47;;;;;;;2.67;1.60;;;19.90;75.90;;;;;;5048666;28;20033;-48
2022/07/11 12:15:34;;;;;;;2.03;1.10;;;20.10;75.70;;;;;;5066506;28;20128;-47
2022/07/11 12:18:04;;;;;;;2.22;1.10;;;19.90;74.00;;;;;;5065655;28;20024;-46
2022/07/11 12:20:45;;;;;;;1.50;0.77;;;19.60;74.70;;;;;;5065988;28;20128;-49
2022/07/11 12:23:19;;;;;;;1.75;1.17;;;19.50;76.10;;;;;;5066320;28;20071;-46
2022/07/11 12:25:47;;;;;;;2.20;0.98;;;19.40;76.50;;;;;;5065699;28;20058;-46
2022/07/11 12:28:15;;;;;;;3.40;1.23;;;19.20;77.90;;;;;;5047787;28;20050;-46
2022/07/11 12:30:42;;;;;;;2.53;1.20;;;19.20;77.70;;;;;;5065180;28;20027;-46
2022/07/11 12:33:11;;;;;;;2.20;1.15;;;19.30;78.30;;;;;;5047951;28;20362;-45
2022/07/11 12:35:54;;;;;;;1.95;0.93;;;19.50;77.40;;;;;;5047150;28;20024;-47
2022/07/11 12:38:22;;;;;;;2.90;0.77;;;19.60;76.20;;;;;;5064363;28;20035;-46
2022/07/11 12:41:06;;;;;;;2.10;0.88;;;19.60;75.30;;;;;;5064109;28;20051;-45
2022/07/11 12:46:38;;;;;;;1.88;0.98;;;19.50;75.60;;;;;;5066823;28;20038;-46
2022/07/11 12:49:07;;;;;;;1.20;0.50;;;19.40;76.40;;;;;;5033281;28;20032;-48
2022/07/11 12:51:41;;;;;;;;;;;19.40;76.50;;;;;;5050184;28;20040;-48
2022/07/11 12:54:14;;;;;;;1.15;0.70;;;19.20;76.50;;;;;;5050273;28;19914;-45
2022/07/11 12:56:59;;;;;;;1.38;0.77;;;19.20;76.80;;;;;;5065553;28;20039;-46
2022/07/11 12:59:29;;;;;;;3.42;1.15;;;19.20;77.20;;;;;;5067130;28;20020;-47
2022/07/11 13:02:29;;;;;;;1.85;0.88;;;19.10;77.70;;;;;;5050259;28;20048;-46
2022/07/11 13:04:56;;;;;;;1.90;1.10;;;19.00;78.00;;;;;;5031697;28;20375;-46
2022/07/11 13:10:53;;;;;;;2.35;1.33;;;19.40;77.70;;;;;;5066122;28;20048;-47
2022/07/11 13:13:20;;;;;;;1.83;0.95;;;19.60;77.60;;;;;;5049936;28;20020;-45
2022/07/11 13:15:48;;;;;;;2.47;0.90;;;19.50;75.20;;;;;;5051094;28;20024;-47